createdAt,value
2022-10-11T00:00:13.994Z,82.40
2022-10-11T00:02:41.492Z,82.50
2022-10-11T00:05:09.313Z,82.50
2022-10-11T00:07:37.637Z,82.60
2022-10-11T00:10:06.125Z,82.70
2022-10-11T00:12:34.680Z,82.80
2022-10-11T00:15:02.726Z,82.80
2022-10-11T00:17:30.160Z,82.90
2022-10-11T00:19:57.551Z,83.10
2022-10-11T00:22:24.891Z,83.20
2022-10-11T00:24:53.064Z,83.30
2022-10-11T00:27:20.389Z,83.40
2022-10-11T00:29:47.788Z,83.50
2022-10-11T00:32:15.322Z,83.60
2022-10-11T00:34:42.735Z,83.60
2022-10-11T00:37:10.281Z,83.70
2022-10-11T00:39:37.644Z,83.80
2022-10-11T00:42:05.087Z,84.00
2022-10-11T00:44:32.986Z,84.00
2022-10-11T00:47:01.974Z,84.10
2022-10-11T00:49:40.949Z,84.20
2022-10-11T00:52:37.760Z,84.30
2022-10-11T00:55:07.176Z,84.40
2022-10-11T00:57:36.979Z,84.50
2022-10-11T01:00:07.389Z,84.60
2022-10-11T01:02:34.850Z,84.60
2022-10-11T01:05:27.591Z,84.70
2022-10-11T01:07:53.189Z,84.80
2022-10-11T01:10:20.693Z,84.80
2022-10-11T01:12:54.648Z,84.80
2022-10-11T01:15:25.682Z,84.90
2022-10-11T01:18:01.050Z,84.90
2022-10-11T01:20:48.771Z,85.00
2022-10-11T01:23:39.063Z,85.10
2022-10-11T01:26:09.800Z,85.10
2022-10-11T01:28:53.755Z,85.10
2022-10-11T01:31:26.646Z,85.20
2022-10-11T01:34:00.971Z,85.30
2022-10-11T01:36:32.063Z,85.30
2022-10-11T01:39:04.204Z,85.40
2022-10-11T01:41:36.807Z,85.40
2022-10-11T01:44:05.341Z,85.40
2022-10-11T01:46:33.220Z,85.40
2022-10-11T01:49:01.703Z,85.40
2022-10-11T01:51:34.730Z,85.50
2022-10-11T01:54:20.581Z,85.50
2022-10-11T01:56:48.157Z,85.70
2022-10-11T01:59:32.924Z,85.60
2022-10-11T02:02:03.415Z,85.70
2022-10-11T02:04:33.110Z,85.70
2022-10-11T02:07:10.665Z,85.70
2022-10-11T02:10:10.581Z,85.70
2022-10-11T02:12:40.111Z,85.70
2022-10-11T02:15:09.436Z,85.70
2022-10-11T02:17:40.668Z,85.70
2022-10-11T02:20:10.439Z,85.80
2022-10-11T02:22:39.327Z,85.80
2022-10-11T02:25:09.410Z,85.90
2022-10-11T02:27:38.597Z,86.00
2022-10-11T02:30:07.620Z,86.00
2022-10-11T02:32:36.696Z,86.10
2022-10-11T02:35:04.419Z,86.10
2022-10-11T02:37:47.251Z,86.10
2022-10-11T02:40:18.583Z,86.20
2022-10-11T02:42:48.805Z,86.20
2022-10-11T02:45:18.704Z,86.30
2022-10-11T02:47:47.118Z,86.30
2022-10-11T02:50:15.063Z,86.40
2022-10-11T02:52:42.457Z,86.40
2022-10-11T02:55:10.261Z,86.50
2022-10-11T02:57:38.566Z,86.50
2022-10-11T03:00:07.051Z,86.60
2022-10-11T03:02:34.849Z,86.70
2022-10-11T03:05:02.246Z,86.70
2022-10-11T03:07:29.627Z,86.70
2022-10-11T03:09:57.054Z,86.80
2022-10-11T03:12:24.509Z,86.90
2022-10-11T03:14:53.060Z,86.90
2022-10-11T03:17:35.501Z,87.00
2022-10-11T03:20:03.986Z,87.10
2022-10-11T03:22:31.323Z,87.10
2022-10-11T03:25:03.603Z,87.20
2022-10-11T03:27:32.899Z,87.40
2022-10-11T03:30:00.807Z,87.50
2022-10-11T03:32:28.721Z,87.70
2022-10-11T03:34:56.124Z,87.80
2022-10-11T03:37:23.626Z,87.90
2022-10-11T03:39:51.140Z,88.10
2022-10-11T03:42:18.678Z,88.10
2022-10-11T03:44:46.082Z,88.20
2022-10-11T03:47:13.471Z,88.20
2022-10-11T03:49:43.595Z,88.40
2022-10-11T03:52:11.481Z,88.40
2022-10-11T03:54:38.843Z,88.50
2022-10-11T03:57:06.268Z,88.60
2022-10-11T03:59:33.640Z,88.60
2022-10-11T04:02:01.120Z,88.70
2022-10-11T04:04:28.516Z,88.80
2022-10-11T04:06:55.861Z,88.90
2022-10-11T04:09:23.263Z,88.90
2022-10-11T04:11:50.591Z,88.90
2022-10-11T04:14:18.056Z,88.90
2022-10-11T04:16:45.381Z,88.90
2022-10-11T04:19:12.733Z,89.10
2022-10-11T04:21:40.240Z,89.00
2022-10-11T04:24:07.723Z,89.00
2022-10-11T04:26:35.108Z,88.90
2022-10-11T04:29:02.511Z,89.00
2022-10-11T04:31:30.104Z,89.00
2022-10-11T04:33:57.513Z,89.00
2022-10-11T04:36:24.941Z,88.90
2022-10-11T04:38:52.393Z,88.80
2022-10-11T04:41:19.826Z,88.70
2022-10-11T04:43:47.281Z,88.70
2022-10-11T04:46:14.765Z,88.70
2022-10-11T04:48:42.186Z,88.60
2022-10-11T04:51:09.785Z,88.60
2022-10-11T04:53:37.349Z,88.60
2022-10-11T04:56:07.743Z,88.60
2022-10-11T04:58:35.686Z,88.60
2022-10-11T05:01:03.285Z,88.60
2022-10-11T05:03:30.696Z,88.60
2022-10-11T05:06:00.947Z,88.80
2022-10-11T05:08:32.027Z,88.90
2022-10-11T05:11:00.385Z,88.90
2022-10-11T05:13:28.659Z,89.00
2022-10-11T05:15:56.170Z,89.00
2022-10-11T05:18:24.207Z,89.00
2022-10-11T05:21:05.107Z,89.10
2022-10-11T05:23:33.685Z,89.10
2022-10-11T05:26:01.331Z,89.20
2022-10-11T05:28:29.261Z,89.30
2022-10-11T05:30:56.664Z,89.20
2022-10-11T05:33:24.342Z,89.30
2022-10-11T05:35:51.803Z,89.30
2022-10-11T05:38:19.646Z,89.30
2022-10-11T05:40:47.009Z,89.30
2022-10-11T05:43:14.498Z,89.40
2022-10-11T05:45:42.860Z,89.50
2022-10-11T05:48:10.695Z,89.60
2022-10-11T05:50:38.661Z,89.50
2022-10-11T05:53:06.069Z,89.60
2022-10-11T05:55:40.304Z,89.60
2022-10-11T05:58:08.295Z,89.60
2022-10-11T06:00:38.911Z,89.60
2022-10-11T06:03:06.966Z,89.70
2022-10-11T06:05:35.285Z,89.70
2022-10-11T06:08:03.844Z,89.70
2022-10-11T06:10:31.258Z,89.70
2022-10-11T06:12:58.746Z,89.70
2022-10-11T06:15:26.242Z,89.80
2022-10-11T06:17:53.770Z,89.70
2022-10-11T06:20:21.185Z,89.80
2022-10-11T06:22:48.647Z,89.70
2022-10-11T06:25:16.183Z,89.70
2022-10-11T06:27:43.570Z,89.80
2022-10-11T06:30:11.261Z,89.80
2022-10-11T06:32:38.681Z,89.80
2022-10-11T06:35:06.525Z,89.90
2022-10-11T06:37:34.083Z,89.90
2022-10-11T06:40:02.116Z,90.00
2022-10-11T06:42:29.553Z,90.00
2022-10-11T06:44:57.012Z,90.00
2022-10-11T06:47:24.444Z,90.00
2022-10-11T06:49:51.833Z,90.00
2022-10-11T06:52:19.285Z,90.00
2022-10-11T06:54:46.748Z,89.90
2022-10-11T06:57:14.256Z,89.90
2022-10-11T06:59:41.630Z,89.80
2022-10-11T07:02:10.056Z,89.80
2022-10-11T07:04:37.434Z,89.80
2022-10-11T07:07:04.976Z,89.90
2022-10-11T07:09:34.069Z,89.80
2022-10-11T07:12:01.498Z,89.80
2022-10-11T07:14:28.888Z,89.80
2022-10-11T07:16:57.329Z,89.80
2022-10-11T07:19:24.899Z,89.80
2022-10-11T07:21:52.400Z,89.80
2022-10-11T07:24:19.759Z,89.80
2022-10-11T07:26:47.238Z,89.70
2022-10-11T07:29:14.860Z,89.60
2022-10-11T07:31:42.768Z,89.60
2022-10-11T07:34:10.686Z,89.50
2022-10-11T07:36:38.115Z,89.40
2022-10-11T07:39:06.017Z,89.40
2022-10-11T07:41:33.525Z,89.30
2022-10-11T07:44:01.186Z,89.20
2022-10-11T07:46:28.593Z,89.20
2022-10-11T07:48:56.369Z,89.20
2022-10-11T07:51:24.216Z,89.10
2022-10-11T07:53:53.605Z,89.00
2022-10-11T07:56:30.140Z,89.00
2022-10-11T07:58:59.140Z,89.00
2022-10-11T08:01:27.561Z,89.00
2022-10-11T08:03:56.934Z,89.10
2022-10-11T08:06:30.295Z,89.30
2022-10-11T08:08:59.387Z,89.40
2022-10-11T08:11:29.928Z,89.50
2022-10-11T08:13:58.313Z,89.50
2022-10-11T08:16:25.677Z,89.50
2022-10-11T08:18:54.485Z,89.20
2022-10-11T08:21:21.875Z,88.80
2022-10-11T08:23:49.677Z,88.50
2022-10-11T08:26:17.307Z,88.10
2022-10-11T08:28:44.794Z,87.80
2022-10-11T08:31:13.188Z,87.70
2022-10-11T08:33:40.632Z,87.50
2022-10-11T08:36:09.576Z,87.20
2022-10-11T08:38:38.073Z,86.90
2022-10-11T08:41:23.312Z,86.50
2022-10-11T08:44:09.779Z,86.10
2022-10-11T08:46:40.013Z,85.70
2022-10-11T08:49:07.766Z,85.30
2022-10-11T08:51:50.584Z,85.20
2022-10-11T08:54:17.984Z,85.10
2022-10-11T08:56:46.008Z,84.90
2022-10-11T08:59:21.108Z,84.70
2022-10-11T09:02:01.589Z,84.60
2022-10-11T09:04:29.172Z,84.50
2022-10-11T09:06:57.726Z,84.30
2022-10-11T09:09:34.019Z,84.00
2022-10-11T09:12:04.769Z,83.60
2022-10-11T09:14:52.483Z,83.30
2022-10-11T09:17:19.960Z,83.10
2022-10-11T09:20:05.722Z,83.10
2022-10-11T09:22:51.720Z,82.70
2022-10-11T09:25:19.484Z,82.50
2022-10-11T09:28:02.908Z,82.50
2022-10-11T09:30:32.068Z,82.20
2022-10-11T09:33:08.952Z,81.60
2022-10-11T09:35:38.903Z,81.40
2022-10-11T09:38:24.859Z,81.10
2022-10-11T09:41:02.209Z,81.10
2022-10-11T09:43:29.746Z,81.00
2022-10-11T09:45:57.298Z,80.30
2022-10-11T09:48:37.995Z,80.20
2022-10-11T09:51:08.333Z,79.80
2022-10-11T09:53:51.024Z,79.40
2022-10-11T09:56:18.575Z,79.20
2022-10-11T09:58:46.275Z,78.90
2022-10-11T10:01:22.393Z,78.70
2022-10-11T10:04:03.189Z,78.30
2022-10-11T10:06:30.619Z,77.90
2022-10-11T10:09:16.734Z,77.50
2022-10-11T10:11:44.345Z,76.50
2022-10-11T10:14:44.087Z,76.50
2022-10-11T10:17:18.820Z,76.10
2022-10-11T10:19:50.990Z,75.90
2022-10-11T10:22:24.152Z,76.00
2022-10-11T10:24:52.050Z,75.60
2022-10-11T10:27:22.489Z,75.50
2022-10-11T10:29:59.080Z,74.90
2022-10-11T10:32:48.495Z,74.60
2022-10-11T10:35:25.318Z,74.30
2022-10-11T10:38:04.137Z,73.30
2022-10-11T10:40:39.152Z,73.10
2022-10-11T10:43:08.814Z,73.00
2022-10-11T10:45:54.991Z,72.30
2022-10-11T10:49:23.272Z,72.00
2022-10-11T10:51:38.770Z,71.50
2022-10-11T10:54:26.458Z,70.80
2022-10-11T10:56:59.775Z,70.10
2022-10-11T10:59:27.140Z,70.10
2022-10-11T11:02:38.621Z,70.30
2022-10-11T11:05:06.285Z,70.40
2022-10-11T11:07:36.822Z,70.20
2022-10-11T11:10:22.070Z,69.90
2022-10-11T11:12:52.396Z,69.80
2022-10-11T11:15:32.122Z,69.10
2022-10-11T11:18:00.432Z,67.30
2022-10-11T11:20:36.980Z,66.90
2022-10-11T11:23:27.278Z,66.90
2022-10-11T11:26:09.017Z,66.40
2022-10-11T11:28:54.916Z,65.10
2022-10-11T11:31:32.041Z,63.60
2022-10-11T11:34:05.820Z,63.50
2022-10-11T11:36:38.479Z,62.10
2022-10-11T11:39:07.306Z,62.00
2022-10-11T11:41:40.746Z,61.20
2022-10-11T11:44:27.711Z,61.50
2022-10-11T11:46:58.262Z,61.60
2022-10-11T11:49:31.136Z,60.50
2022-10-11T11:51:59.254Z,60.60
2022-10-11T11:54:50.600Z,60.90
2022-10-11T11:57:17.975Z,61.80
2022-10-11T11:59:45.496Z,60.70
2022-10-11T12:02:12.847Z,60.60
2022-10-11T12:04:42.218Z,59.60
2022-10-11T12:07:16.453Z,59.60
2022-10-11T12:09:46.343Z,59.40
2022-10-11T12:12:25.842Z,58.80
2022-10-11T12:15:02.458Z,59.10
2022-10-11T12:17:30.073Z,59.50
2022-10-11T12:20:03.695Z,59.80
2022-10-11T12:22:31.051Z,60.20
2022-10-11T12:25:00.946Z,60.40
2022-10-11T12:27:37.794Z,60.00
2022-10-11T12:30:25.209Z,60.20
2022-10-11T12:32:54.692Z,60.60
2022-10-11T12:35:31.726Z,60.40
2022-10-11T12:38:04.703Z,60.50
2022-10-11T12:40:42.397Z,60.70
2022-10-11T12:43:15.811Z,60.00
2022-10-11T12:45:47.991Z,60.30
2022-10-11T12:48:39.948Z,60.50
2022-10-11T12:51:17.380Z,60.10
2022-10-11T12:54:02.292Z,59.90
2022-10-11T12:56:44.468Z,60.00
2022-10-11T12:59:32.104Z,60.30
2022-10-11T13:02:00.073Z,60.00
2022-10-11T13:04:31.889Z,60.40
2022-10-11T13:07:06.880Z,59.80
2022-10-11T13:09:46.628Z,59.90
2022-10-11T13:12:18.385Z,60.10
2022-10-11T13:14:47.379Z,60.40
2022-10-11T13:17:24.795Z,60.70
2022-10-11T13:19:59.694Z,60.20
2022-10-11T13:22:27.342Z,59.90
2022-10-11T13:25:00.388Z,60.20
2022-10-11T13:27:27.858Z,60.60
2022-10-11T13:29:59.339Z,60.80
2022-10-11T13:32:28.372Z,61.00
2022-10-11T13:34:57.611Z,61.30
2022-10-11T13:37:26.715Z,61.50
2022-10-11T13:39:55.413Z,61.40
2022-10-11T13:42:30.917Z,61.70
2022-10-11T13:44:59.223Z,61.70
2022-10-11T13:47:28.230Z,61.90
2022-10-11T13:50:02.930Z,62.10
2022-10-11T13:52:30.418Z,62.30
2022-10-11T13:55:03.890Z,62.40
2022-10-11T13:57:36.943Z,62.40
2022-10-11T14:00:08.362Z,62.40
2022-10-11T14:02:39.518Z,62.30
2022-10-11T14:05:07.015Z,62.40
2022-10-11T14:07:37.407Z,62.20
2022-10-11T14:10:05.920Z,62.10
2022-10-11T14:12:40.958Z,62.00
2022-10-11T14:15:27.382Z,61.80
2022-10-11T14:17:54.755Z,61.20
2022-10-11T14:20:30.796Z,60.80
2022-10-11T14:23:00.637Z,60.40
2022-10-11T14:25:28.080Z,60.10
2022-10-11T14:27:55.434Z,60.20
2022-10-11T14:30:26.433Z,60.40
2022-10-11T14:32:56.601Z,60.50
2022-10-11T14:35:29.488Z,60.60
2022-10-11T14:37:56.986Z,60.60
2022-10-11T14:40:25.848Z,60.20
2022-10-11T14:42:53.360Z,60.50
2022-10-11T14:45:23.561Z,61.00
2022-10-11T14:47:51.831Z,61.40
2022-10-11T14:50:39.154Z,61.70
2022-10-11T14:53:07.625Z,62.00
2022-10-11T14:55:35.966Z,62.30
2022-10-11T14:58:03.847Z,62.50
2022-10-11T15:00:32.164Z,62.40
2022-10-11T15:02:59.624Z,62.50
2022-10-11T15:05:33.510Z,62.50
2022-10-11T15:08:02.170Z,62.70
2022-10-11T15:10:33.391Z,62.90
2022-10-11T15:13:00.817Z,63.00
2022-10-11T15:15:30.526Z,63.10
2022-10-11T15:17:59.220Z,63.10
2022-10-11T15:20:33.652Z,62.90
2022-10-11T15:23:01.472Z,62.80
2022-10-11T15:25:29.675Z,62.70
2022-10-11T15:27:57.538Z,62.60
2022-10-11T15:30:29.613Z,61.90
2022-10-11T15:32:57.283Z,61.60
2022-10-11T15:35:25.489Z,61.70
2022-10-11T15:37:54.013Z,61.80
2022-10-11T15:40:23.092Z,61.80
2022-10-11T15:42:50.985Z,62.00
2022-10-11T15:45:19.640Z,62.30
2022-10-11T15:47:47.282Z,62.50
2022-10-11T15:50:23.390Z,62.70
2022-10-11T15:52:51.822Z,62.90
2022-10-11T15:55:19.301Z,63.00
2022-10-11T15:57:46.665Z,63.10
2022-10-11T16:00:17.543Z,63.20
2022-10-11T16:02:47.299Z,63.30
2022-10-11T16:05:14.616Z,63.40
2022-10-11T16:07:41.961Z,63.40
2022-10-11T16:10:09.572Z,63.70
2022-10-11T16:12:36.924Z,63.90
2022-10-11T16:15:04.636Z,64.10
2022-10-11T16:17:32.084Z,64.60
2022-10-11T16:20:00.451Z,65.00
2022-10-11T16:22:27.840Z,65.40
2022-10-11T16:24:55.463Z,65.70
2022-10-11T16:27:22.776Z,65.90
2022-10-11T16:29:50.407Z,66.10
2022-10-11T16:32:17.908Z,66.30
2022-10-11T16:34:45.315Z,66.60
2022-10-11T16:37:13.107Z,67.00
2022-10-11T16:39:40.609Z,67.30
2022-10-11T16:42:07.935Z,67.50
2022-10-11T16:44:37.964Z,67.60
2022-10-11T16:47:05.802Z,67.80
2022-10-11T16:49:33.691Z,68.00
2022-10-11T16:52:02.535Z,68.10
2022-10-11T16:54:32.826Z,68.20
2022-10-11T16:57:00.221Z,68.40
2022-10-11T16:59:27.640Z,68.70
2022-10-11T17:01:55.326Z,69.00
2022-10-11T17:04:22.828Z,69.30
2022-10-11T17:06:50.896Z,69.60
2022-10-11T17:09:18.348Z,69.90
2022-10-11T17:11:45.739Z,70.20
2022-10-11T17:14:13.487Z,70.50
2022-10-11T17:16:40.857Z,70.80
2022-10-11T17:19:12.302Z,71.20
2022-10-11T17:21:39.937Z,71.50
2022-10-11T17:24:07.562Z,71.90
2022-10-11T17:26:35.029Z,72.30
2022-10-11T17:29:02.486Z,72.70
2022-10-11T17:31:30.314Z,73.00
2022-10-11T17:33:58.440Z,73.30
2022-10-11T17:36:34.752Z,73.60
2022-10-11T17:39:04.424Z,73.80
2022-10-11T17:41:32.453Z,74.10
2022-10-11T17:44:01.118Z,74.30
2022-10-11T17:46:32.405Z,74.50
2022-10-11T17:49:00.678Z,74.80
2022-10-11T17:51:28.090Z,75.00
2022-10-11T17:53:55.467Z,75.30
2022-10-11T17:56:28.752Z,75.40
2022-10-11T17:58:58.676Z,75.60
2022-10-11T18:01:27.447Z,75.80
2022-10-11T18:03:59.587Z,76.00
2022-10-11T18:06:28.923Z,76.20
2022-10-11T18:08:57.475Z,76.50
2022-10-11T18:11:25.011Z,76.70
2022-10-11T18:13:53.047Z,76.80
2022-10-11T18:16:22.052Z,77.00
2022-10-11T18:18:49.851Z,77.20
2022-10-11T18:21:18.746Z,77.40
2022-10-11T18:23:46.393Z,77.60
2022-10-11T18:26:15.013Z,77.80
2022-10-11T18:28:43.152Z,77.90
2022-10-11T18:31:13.677Z,78.00
2022-10-11T18:33:42.358Z,78.00
2022-10-11T18:36:12.317Z,78.00
2022-10-11T18:38:43.162Z,78.00
2022-10-11T18:41:11.189Z,78.10
2022-10-11T18:43:38.683Z,78.00
2022-10-11T18:46:07.287Z,78.10
2022-10-11T18:48:34.683Z,78.10
2022-10-11T18:51:03.864Z,78.30
2022-10-11T18:53:32.003Z,78.40
2022-10-11T18:56:01.050Z,78.60
2022-10-11T18:58:32.516Z,78.70
2022-10-11T19:01:07.719Z,78.80
2022-10-11T19:03:35.566Z,79.00
2022-10-11T19:06:04.542Z,79.10
2022-10-11T19:08:32.878Z,79.20
2022-10-11T19:11:07.059Z,79.20
2022-10-11T19:13:35.163Z,79.20
2022-10-11T19:16:06.869Z,79.20
2022-10-11T19:18:34.792Z,79.30
2022-10-11T19:21:03.682Z,79.30
2022-10-11T19:23:32.229Z,79.30
2022-10-11T19:26:07.361Z,79.30
2022-10-11T19:28:45.280Z,79.30
2022-10-11T19:31:14.420Z,79.40
2022-10-11T19:33:42.056Z,79.50
2022-10-11T19:36:11.159Z,79.50
2022-10-11T19:38:38.519Z,79.60
2022-10-11T19:41:07.755Z,79.70
2022-10-11T19:43:35.090Z,79.70
2022-10-11T19:46:06.768Z,79.90
2022-10-11T19:48:36.518Z,80.00
2022-10-11T19:51:05.518Z,80.10
2022-10-11T19:53:33.188Z,80.30
2022-10-11T19:56:04.802Z,80.40
2022-10-11T19:58:32.275Z,80.50
2022-10-11T20:01:11.991Z,80.70
2022-10-11T20:03:39.616Z,80.90
2022-10-11T20:06:07.789Z,81.00
2022-10-11T20:08:36.175Z,81.10
2022-10-11T20:11:10.393Z,81.30
2022-10-11T20:13:39.063Z,81.30
2022-10-11T20:16:09.126Z,81.30
2022-10-11T20:18:38.066Z,81.20
2022-10-11T20:21:07.322Z,81.20
2022-10-11T20:23:35.082Z,81.10
2022-10-11T20:26:13.296Z,81.00
2022-10-11T20:28:41.556Z,80.90
2022-10-11T20:31:13.895Z,80.80
2022-10-11T20:33:41.557Z,80.80
2022-10-11T20:36:10.189Z,80.70
2022-10-11T20:38:39.234Z,80.60
2022-10-11T20:41:07.872Z,80.70
2022-10-11T20:43:38.479Z,80.70
2022-10-11T20:46:10.460Z,80.70
2022-10-11T20:48:42.621Z,80.60
2022-10-11T20:51:10.646Z,80.60
2022-10-11T20:53:38.417Z,80.60
2022-10-11T20:56:08.125Z,80.60
2022-10-11T20:58:35.827Z,80.40
2022-10-11T21:01:10.703Z,80.30
2022-10-11T21:03:38.425Z,80.30
2022-10-11T21:06:05.939Z,80.20
2022-10-11T21:08:33.777Z,80.20
2022-10-11T21:11:01.571Z,80.20
2022-10-11T21:13:28.898Z,80.20
2022-10-11T21:15:56.537Z,80.30
2022-10-11T21:18:24.007Z,80.30
2022-10-11T21:20:51.504Z,80.50
2022-10-11T21:23:19.089Z,80.50
2022-10-11T21:25:46.518Z,80.50
2022-10-11T21:28:16.765Z,80.50
2022-10-11T21:30:44.312Z,80.50
2022-10-11T21:33:11.744Z,80.60
2022-10-11T21:35:40.245Z,80.60
2022-10-11T21:38:09.247Z,80.70
2022-10-11T21:40:40.024Z,80.70
2022-10-11T21:43:07.540Z,80.80
2022-10-11T21:45:38.603Z,80.90
2022-10-11T21:48:06.337Z,81.00
2022-10-11T21:50:33.731Z,81.30
2022-10-11T21:53:01.152Z,81.50
2022-10-11T21:55:28.793Z,81.80
2022-10-11T21:57:56.167Z,82.00
2022-10-11T22:00:25.483Z,82.20
2022-10-11T22:02:52.920Z,82.30
2022-10-11T22:05:20.499Z,82.40
2022-10-11T22:07:47.972Z,82.50
2022-10-11T22:10:15.507Z,82.70
2022-10-11T22:12:42.890Z,82.70
2022-10-11T22:15:10.581Z,82.80
2022-10-11T22:17:37.942Z,82.80
2022-10-11T22:20:05.544Z,82.80
2022-10-11T22:22:33.259Z,82.70
2022-10-11T22:25:00.808Z,82.70
2022-10-11T22:27:28.222Z,82.80
2022-10-11T22:29:55.657Z,82.90
2022-10-11T22:32:23.140Z,83.00
2022-10-11T22:34:50.622Z,83.00
2022-10-11T22:37:18.064Z,83.10
2022-10-11T22:39:45.436Z,83.10
2022-10-11T22:42:12.892Z,83.00
2022-10-11T22:44:40.320Z,83.00
2022-10-11T22:47:07.726Z,83.00
2022-10-11T22:49:35.112Z,82.90
2022-10-11T22:52:02.465Z,82.90
2022-10-11T22:54:29.881Z,82.90
2022-10-11T22:56:57.295Z,82.90
2022-10-11T22:59:24.723Z,82.80
2022-10-11T23:01:52.227Z,82.80
2022-10-11T23:04:20.919Z,82.80
2022-10-11T23:06:48.353Z,82.80
2022-10-11T23:09:15.749Z,82.90
2022-10-11T23:11:43.150Z,82.90
2022-10-11T23:14:10.927Z,83.00
2022-10-11T23:16:38.335Z,83.00
2022-10-11T23:19:05.701Z,83.00
2022-10-11T23:21:33.264Z,83.00
2022-10-11T23:24:00.679Z,83.00
2022-10-11T23:26:28.144Z,83.10
2022-10-11T23:28:55.819Z,83.10
2022-10-11T23:31:23.252Z,83.10
2022-10-11T23:33:50.821Z,83.10
2022-10-11T23:36:22.861Z,83.20
2022-10-11T23:38:55.208Z,83.20
2022-10-11T23:41:23.714Z,83.20
2022-10-11T23:43:51.102Z,83.30
2022-10-11T23:46:18.462Z,83.30
2022-10-11T23:48:45.852Z,83.40
2022-10-11T23:51:13.303Z,83.50
2022-10-11T23:53:40.722Z,83.60
2022-10-11T23:56:08.568Z,83.70
2022-10-11T23:58:36.441Z,83.80
